createdAt,value
2023-04-10T00:00:13.367Z,102437.06
2023-04-10T00:03:08.843Z,102436.25
2023-04-10T00:05:57.379Z,102434.59
2023-04-10T00:08:43.697Z,102428.56
2023-04-10T00:11:30.416Z,102428.69
2023-04-10T00:14:22.944Z,102421.75
2023-04-10T00:17:08.904Z,102425.28
2023-04-10T00:19:55.048Z,102413.31
2023-04-10T00:22:44.507Z,102407.34
2023-04-10T00:25:30.452Z,102408.19
2023-04-10T00:28:17.250Z,102407.44
2023-04-10T00:31:03.073Z,102399.69
2023-04-10T00:33:48.777Z,102403.25
2023-04-10T00:36:34.669Z,102401.56
2023-04-10T00:39:21.844Z,102399.91
2023-04-10T00:42:09.306Z,102399.16
2023-04-10T00:44:55.476Z,102407.03
2023-04-10T00:47:41.868Z,102400.97
2023-04-10T00:50:27.616Z,102403.66
2023-04-10T00:53:13.307Z,102410.66
2023-04-10T00:56:00.482Z,102411.59
2023-04-10T00:58:46.609Z,102417.72
2023-04-10T01:01:32.509Z,102415.19
2023-04-10T01:04:18.341Z,102409.09
2023-04-10T01:07:05.494Z,102409.16
2023-04-10T01:09:54.465Z,102411.84
2023-04-10T01:12:48.277Z,102412.69
2023-04-10T01:15:34.971Z,102410.06
2023-04-10T01:18:23.880Z,102413.66
2023-04-10T01:21:09.857Z,102411.16
2023-04-10T01:24:02.766Z,102412.91
2023-04-10T01:26:54.343Z,102416.44
2023-04-10T01:29:44.525Z,102416.56
2023-04-10T01:32:31.308Z,102415.81
2023-04-10T01:35:17.245Z,102406.25
2023-04-10T01:38:03.157Z,102408.88
2023-04-10T01:40:50.372Z,102411.59
2023-04-10T01:43:43.999Z,102407.16
2023-04-10T01:46:32.220Z,102413.25
2023-04-10T01:49:18.415Z,102403.84
2023-04-10T01:52:04.858Z,102401.34
2023-04-10T01:54:51.099Z,102404.03
2023-04-10T01:57:43.924Z,102403.97
2023-04-10T02:00:29.795Z,102403.97
2023-04-10T02:03:17.097Z,102404.06
2023-04-10T02:06:07.106Z,102404.22
2023-04-10T02:08:54.640Z,102397.31
2023-04-10T02:11:42.476Z,102394.69
2023-04-10T02:14:29.374Z,102386.94
2023-04-10T02:17:15.647Z,102390.34
2023-04-10T02:20:03.103Z,102381.53
2023-04-10T02:22:49.076Z,102384.28
2023-04-10T02:25:35.581Z,102380.56
2023-04-10T02:28:21.493Z,102379.78
2023-04-10T02:31:07.550Z,102384.97
2023-04-10T02:33:53.609Z,102384.16
2023-04-10T02:36:41.134Z,102378.13
2023-04-10T02:39:28.677Z,102373.50
2023-04-10T02:42:16.150Z,102372.69
2023-04-10T02:45:02.374Z,102381.41
2023-04-10T02:47:54.100Z,102383.13
2023-04-10T02:50:40.977Z,102384.09
2023-04-10T02:53:28.444Z,102379.72
2023-04-10T02:56:18.538Z,102379.13
2023-04-10T02:59:04.706Z,102382.72
2023-04-10T03:01:52.103Z,102388.81
2023-04-10T03:04:39.726Z,102390.47
2023-04-10T03:07:27.048Z,102393.53
2023-04-10T03:10:14.138Z,102389.84
2023-04-10T03:13:00.514Z,102387.66
2023-04-10T03:15:46.201Z,102387.81
2023-04-10T03:18:34.108Z,102395.16
2023-04-10T03:21:20.318Z,102400.03
2023-04-10T03:24:08.081Z,102401.38
2023-04-10T03:26:56.830Z,102420.22
2023-04-10T03:29:43.894Z,102412.03
2023-04-10T03:32:31.095Z,102414.25
2023-04-10T03:35:16.941Z,102407.72
2023-04-10T03:38:02.758Z,102408.50
2023-04-10T03:40:48.564Z,102405.50
2023-04-10T03:43:36.737Z,102397.03
2023-04-10T03:46:23.485Z,102396.22
2023-04-10T03:49:10.456Z,102387.44
2023-04-10T03:51:57.018Z,102382.69
2023-04-10T03:54:42.938Z,102374.00
2023-04-10T03:57:41.505Z,102372.78
2023-04-10T04:00:28.761Z,102369.09
2023-04-10T04:03:22.904Z,102353.44
2023-04-10T04:06:18.209Z,102344.69
2023-04-10T04:09:26.639Z,102337.16
2023-04-10T04:12:35.598Z,102333.91
2023-04-10T04:15:26.582Z,102324.28
2023-04-10T04:18:19.234Z,102318.88
2023-04-10T04:21:09.493Z,102308.66
2023-04-10T04:24:17.868Z,102300.66
2023-04-10T04:27:14.248Z,102282.06
2023-04-10T04:30:20.374Z,102274.84
2023-04-10T04:33:24.089Z,102269.50
2023-04-10T04:36:17.614Z,102265.00
2023-04-10T04:39:18.460Z,102263.06
2023-04-10T04:42:26.592Z,102257.72
2023-04-10T04:45:31.381Z,102255.59
2023-04-10T04:48:29.090Z,102235.38
2023-04-10T04:51:23.403Z,102230.94
2023-04-10T04:54:22.276Z,102226.22
2023-04-10T04:57:26.973Z,102219.63
2023-04-10T05:00:31.748Z,102204.44
2023-04-10T05:03:29.362Z,102199.75
2023-04-10T05:06:33.081Z,102201.41
2023-04-10T05:09:32.928Z,102188.84
2023-04-10T05:12:31.107Z,102179.91
2023-04-10T05:15:22.114Z,102183.16
2023-04-10T05:18:26.839Z,102174.13
2023-04-10T05:21:31.768Z,102169.31
2023-04-10T05:24:21.527Z,102168.38
2023-04-10T05:27:27.312Z,102155.97
2023-04-10T05:30:25.825Z,102150.25
2023-04-10T05:33:34.221Z,102141.09
2023-04-10T05:36:31.671Z,102151.22
2023-04-10T05:39:25.419Z,102142.13
2023-04-10T05:42:37.057Z,102145.19
2023-04-10T05:45:44.575Z,102132.19
2023-04-10T05:48:59.735Z,102131.66
2023-04-10T05:52:08.052Z,102121.44
2023-04-10T05:55:12.759Z,102117.31
2023-04-10T05:58:02.085Z,102113.38
2023-04-10T06:00:56.819Z,102107.63
2023-04-10T06:03:55.133Z,102102.59
2023-04-10T06:06:41.944Z,102097.69
2023-04-10T06:09:30.773Z,102078.66
2023-04-10T06:12:17.163Z,102054.91
2023-04-10T06:15:03.110Z,102049.03
2023-04-10T06:17:53.919Z,102036.84
2023-04-10T06:20:40.066Z,102022.94
2023-04-10T06:23:26.555Z,101997.84
2023-04-10T06:26:14.550Z,101987.72
2023-04-10T06:29:00.655Z,101975.69
2023-04-10T06:31:46.680Z,101971.28
2023-04-10T06:34:32.948Z,101961.81
2023-04-10T06:37:27.845Z,101948.81
2023-04-10T06:40:14.413Z,101930.22
2023-04-10T06:43:02.150Z,101932.88
2023-04-10T06:45:54.494Z,101917.84
2023-04-10T06:48:40.329Z,101915.72
2023-04-10T06:51:26.040Z,101901.53
2023-04-10T06:54:11.952Z,101904.06
2023-04-10T06:56:58.947Z,101885.38
2023-04-10T06:59:46.468Z,101889.56
2023-04-10T07:02:32.236Z,101878.09
2023-04-10T07:05:18.512Z,101873.31
2023-04-10T07:08:04.525Z,101868.56
2023-04-10T07:10:50.312Z,101859.44
2023-04-10T07:13:38.749Z,101855.41
2023-04-10T07:16:26.441Z,101848.69
2023-04-10T07:19:12.203Z,101844.34
2023-04-10T07:21:58.171Z,101845.81
2023-04-10T07:24:44.113Z,101845.31
2023-04-10T07:27:30.211Z,101829.00
2023-04-10T07:30:16.351Z,101833.41
2023-04-10T07:33:03.905Z,101824.47
2023-04-10T07:35:50.111Z,101817.16
2023-04-10T07:38:36.419Z,101815.66
2023-04-10T07:41:22.246Z,101811.50
2023-04-10T07:44:08.347Z,101805.28
2023-04-10T07:46:54.092Z,101802.53
2023-04-10T07:49:41.228Z,101794.81
2023-04-10T07:52:27.115Z,101792.53
2023-04-10T07:55:13.272Z,101780.25
2023-04-10T07:57:59.276Z,101783.16
2023-04-10T08:00:45.714Z,101781.31
2023-04-10T08:03:31.812Z,101780.91
2023-04-10T08:06:19.400Z,101762.44
2023-04-10T08:09:05.158Z,101760.50
2023-04-10T08:11:51.078Z,101768.50
2023-04-10T08:14:37.215Z,101767.09
2023-04-10T08:17:22.919Z,101751.47
2023-04-10T08:20:09.814Z,101754.84
2023-04-10T08:23:03.113Z,101748.38
2023-04-10T08:25:52.174Z,101742.09
2023-04-10T08:28:38.121Z,101743.16
2023-04-10T08:31:24.526Z,101748.91
2023-04-10T08:34:10.849Z,101742.78
2023-04-10T08:36:56.595Z,101735.16
2023-04-10T08:39:43.660Z,101737.09
2023-04-10T08:42:29.473Z,101724.50
2023-04-10T08:45:15.289Z,101725.13
2023-04-10T08:48:01.339Z,101718.53
2023-04-10T08:50:47.441Z,101705.69
2023-04-10T08:53:33.206Z,101706.22
2023-04-10T08:56:20.568Z,101704.97
2023-04-10T08:59:06.743Z,101704.22
2023-04-10T09:01:53.403Z,101711.44
2023-04-10T09:04:39.545Z,101714.59
2023-04-10T09:07:25.815Z,101704.88
2023-04-10T09:10:11.514Z,101698.84
2023-04-10T09:12:59.498Z,101690.50
2023-04-10T09:15:58.139Z,101678.72
2023-04-10T09:18:44.730Z,101667.28
2023-04-10T09:21:31.271Z,101656.50
2023-04-10T09:24:17.130Z,101651.78
2023-04-10T09:27:03.151Z,101634.34
2023-04-10T09:29:51.695Z,101626.19
2023-04-10T09:32:38.236Z,101621.81
2023-04-10T09:35:24.235Z,101618.22
2023-04-10T09:38:17.116Z,101605.81
2023-04-10T09:41:07.615Z,101597.00
2023-04-10T09:43:56.275Z,101606.88
2023-04-10T09:46:43.915Z,101603.88
2023-04-10T09:49:29.697Z,101596.09
2023-04-10T09:52:19.277Z,101601.06
2023-04-10T09:55:05.993Z,101594.28
2023-04-10T09:57:51.746Z,101592.59
2023-04-10T10:00:40.254Z,101592.41
2023-04-10T10:03:27.693Z,101579.56
2023-04-10T10:06:13.895Z,101573.47
2023-04-10T10:09:01.562Z,101569.91
2023-04-10T10:11:47.378Z,101571.19
2023-04-10T10:14:33.104Z,101561.97
2023-04-10T10:17:19.548Z,101559.09
2023-04-10T10:20:08.325Z,101558.09
2023-04-10T10:22:54.134Z,101554.44
2023-04-10T10:25:40.273Z,101543.84
2023-04-10T10:28:26.601Z,101535.97
2023-04-10T10:31:12.685Z,101527.16
2023-04-10T10:33:59.076Z,101519.84
2023-04-10T10:36:46.293Z,101528.22
2023-04-10T10:39:33.968Z,101535.66
2023-04-10T10:42:21.626Z,101523.56
2023-04-10T10:45:09.288Z,101511.84
2023-04-10T10:47:55.482Z,101512.25
2023-04-10T10:50:56.171Z,101504.47
2023-04-10T10:53:44.309Z,101494.66
2023-04-10T10:56:37.182Z,101482.72
2023-04-10T10:59:38.086Z,101479.75
2023-04-10T11:02:24.193Z,101462.84
2023-04-10T11:05:10.217Z,101445.13
2023-04-10T11:08:08.840Z,101430.28
2023-04-10T11:11:02.383Z,101427.97
2023-04-10T11:14:07.356Z,101422.84
2023-04-10T11:16:53.158Z,101408.00
2023-04-10T11:19:57.982Z,101397.53
2023-04-10T11:23:02.834Z,101393.03
2023-04-10T11:25:50.261Z,101386.03
2023-04-10T11:28:38.278Z,101387.25
2023-04-10T11:31:24.507Z,101374.72
2023-04-10T11:34:11.413Z,101368.31
2023-04-10T11:36:59.268Z,101360.50
2023-04-10T11:39:45.476Z,101351.22
2023-04-10T11:42:31.298Z,101351.06
2023-04-10T11:45:25.344Z,101345.28
2023-04-10T11:48:11.780Z,101347.19
2023-04-10T11:50:58.044Z,101343.22
2023-04-10T11:53:43.796Z,101341.38
2023-04-10T11:56:29.976Z,101353.47
2023-04-10T11:59:19.571Z,101333.34
2023-04-10T12:02:09.231Z,101336.53
2023-04-10T12:04:58.473Z,101324.03
2023-04-10T12:07:44.065Z,101310.19
2023-04-10T12:10:30.791Z,101315.50
2023-04-10T12:13:25.188Z,101299.53
2023-04-10T12:16:11.718Z,101306.16
2023-04-10T12:18:59.027Z,101290.59
2023-04-10T12:21:47.088Z,101286.44
2023-04-10T12:24:42.541Z,101286.00
2023-04-10T12:27:29.189Z,101277.69
2023-04-10T12:30:15.283Z,101276.84
2023-04-10T12:33:05.755Z,101287.88
2023-04-10T12:35:54.166Z,101271.94
2023-04-10T12:38:40.784Z,101273.53
2023-04-10T12:41:27.688Z,101267.22
2023-04-10T12:44:14.096Z,101262.78
2023-04-10T12:47:01.178Z,101261.88
2023-04-10T12:50:06.412Z,101258.78
2023-04-10T12:53:03.733Z,101253.41
2023-04-10T12:56:00.181Z,101268.72
2023-04-10T12:58:46.209Z,101246.25
2023-04-10T13:01:32.205Z,101242.91
2023-04-10T13:04:18.575Z,101236.38
2023-04-10T13:07:04.698Z,101241.50
2023-04-10T13:09:52.284Z,101239.75
2023-04-10T13:12:38.925Z,101227.13
2023-04-10T13:15:25.613Z,101218.47
2023-04-10T13:18:12.039Z,101213.03
2023-04-10T13:20:58.287Z,101204.19
2023-04-10T13:23:44.435Z,101199.72
2023-04-10T13:26:32.008Z,101197.28
2023-04-10T13:29:17.846Z,101193.97
2023-04-10T13:32:05.339Z,101188.16
2023-04-10T13:34:51.519Z,101172.00
2023-04-10T13:37:37.580Z,101159.75
2023-04-10T13:40:23.504Z,101149.59
2023-04-10T13:43:10.744Z,101146.09
2023-04-10T13:45:56.557Z,101141.91
2023-04-10T13:48:42.505Z,101135.44
2023-04-10T13:51:29.636Z,101133.13
2023-04-10T13:54:17.013Z,101123.09
2023-04-10T13:57:03.242Z,101112.44
2023-04-10T13:59:50.408Z,101112.81
2023-04-10T14:02:36.563Z,101101.78
2023-04-10T14:05:22.791Z,101098.72
2023-04-10T14:08:11.558Z,101088.63
2023-04-10T14:10:57.377Z,101103.19
2023-04-10T14:13:43.392Z,101093.00
2023-04-10T14:16:30.975Z,101071.16
2023-04-10T14:19:16.655Z,101067.38
2023-04-10T14:22:02.441Z,101056.72
2023-04-10T14:24:48.935Z,101051.53
2023-04-10T14:27:35.799Z,101049.50
2023-04-10T14:30:22.080Z,101045.97
2023-04-10T14:33:09.299Z,101033.94
2023-04-10T14:35:55.587Z,101036.59
2023-04-10T14:38:41.829Z,101031.50
2023-04-10T14:41:28.660Z,101019.53
2023-04-10T14:44:14.516Z,101012.56
2023-04-10T14:47:00.372Z,101002.59
2023-04-10T14:49:47.500Z,101003.41
2023-04-10T14:52:33.461Z,100988.50
2023-04-10T14:55:19.577Z,100991.69
2023-04-10T14:58:06.647Z,100987.81
2023-04-10T15:00:52.789Z,100982.81
2023-04-10T15:03:39.744Z,100962.16
2023-04-10T15:06:28.170Z,100951.06
2023-04-10T15:09:14.027Z,100948.66
2023-04-10T15:12:00.167Z,100939.38
2023-04-10T15:14:45.805Z,100932.59
2023-04-10T15:17:31.594Z,100922.69
2023-04-10T15:20:17.917Z,100921.56
2023-04-10T15:23:05.116Z,100920.97
2023-04-10T15:25:51.529Z,100915.78
2023-04-10T15:28:37.406Z,100911.50
2023-04-10T15:31:23.639Z,100914.56
2023-04-10T15:34:10.161Z,100898.91
2023-04-10T15:36:56.235Z,100886.44
2023-04-10T15:39:43.171Z,100886.44
2023-04-10T15:42:29.067Z,100871.88
2023-04-10T15:45:14.888Z,100865.88
2023-04-10T15:48:03.803Z,100867.47
2023-04-10T15:50:50.023Z,100859.63
2023-04-10T15:53:35.871Z,100858.84
2023-04-10T15:56:22.945Z,100848.66
2023-04-10T15:59:09.036Z,100845.69
2023-04-10T16:01:54.850Z,100844.81
2023-04-10T16:04:41.309Z,100845.28
2023-04-10T16:07:27.462Z,100842.13
2023-04-10T16:10:13.180Z,100834.19
2023-04-10T16:13:04.125Z,100818.28
2023-04-10T16:15:50.457Z,100833.00
2023-04-10T16:18:36.732Z,100805.16
2023-04-10T16:21:22.505Z,100808.22
2023-04-10T16:24:09.094Z,100813.94
2023-04-10T16:26:55.105Z,100805.06
2023-04-10T16:29:42.290Z,100805.00
2023-04-10T16:32:30.339Z,100798.81
2023-04-10T16:35:18.899Z,100795.38
2023-04-10T16:38:05.227Z,100790.66
2023-04-10T16:40:51.426Z,100792.63
2023-04-10T16:43:37.554Z,100786.31
2023-04-10T16:46:24.780Z,100775.41
2023-04-10T16:49:10.563Z,100775.97
2023-04-10T16:51:56.494Z,100772.44
2023-04-10T16:54:42.264Z,100774.22
2023-04-10T16:57:28.053Z,100760.19
2023-04-10T17:00:14.306Z,100757.50
2023-04-10T17:03:01.555Z,100761.25
2023-04-10T17:05:47.513Z,100752.94
2023-04-10T17:08:33.534Z,100756.91
2023-04-10T17:11:19.592Z,100762.72
2023-04-10T17:14:06.552Z,100761.53
2023-04-10T17:16:52.667Z,100759.72
2023-04-10T17:19:40.473Z,100756.22
2023-04-10T17:22:26.638Z,100751.41
2023-04-10T17:25:12.626Z,100740.44
2023-04-10T17:27:58.464Z,100747.97
2023-04-10T17:30:44.338Z,100747.69
2023-04-10T17:33:30.292Z,100743.25
2023-04-10T17:36:17.614Z,100739.56
2023-04-10T17:39:03.926Z,100743.13
2023-04-10T17:41:49.930Z,100748.66
2023-04-10T17:44:35.952Z,100740.34
2023-04-10T17:47:21.717Z,100724.53
2023-04-10T17:50:08.052Z,100734.47
2023-04-10T17:52:55.505Z,100728.16
2023-04-10T17:55:41.435Z,100714.78
2023-04-10T17:58:27.410Z,100728.53
2023-04-10T18:01:13.741Z,100712.56
2023-04-10T18:04:00.138Z,100714.63
2023-04-10T18:06:46.506Z,100707.31
2023-04-10T18:09:33.527Z,100710.34
2023-04-10T18:12:19.462Z,100700.16
2023-04-10T18:15:06.255Z,100689.72
2023-04-10T18:17:52.752Z,100686.34
2023-04-10T18:20:38.421Z,100677.34
2023-04-10T18:23:26.745Z,100671.31
2023-04-10T18:26:14.246Z,100670.84
2023-04-10T18:29:01.189Z,100652.66
2023-04-10T18:31:47.248Z,100655.03
2023-04-10T18:34:33.096Z,100662.03
2023-04-10T18:37:18.841Z,100648.84
2023-04-10T18:40:15.526Z,100647.56
2023-04-10T18:43:04.058Z,100645.06
2023-04-10T18:45:49.899Z,100650.91
2023-04-10T18:48:38.305Z,100641.41
2023-04-10T18:51:24.330Z,100638.25
2023-04-10T18:54:10.712Z,100632.25
2023-04-10T18:56:57.366Z,100626.38
2023-04-10T18:59:44.722Z,100619.84
2023-04-10T19:02:30.640Z,100605.34
2023-04-10T19:05:16.676Z,100609.66
2023-04-10T19:08:04.808Z,100605.97
2023-04-10T19:10:50.905Z,100606.09
2023-04-10T19:13:36.703Z,100606.09
2023-04-10T19:16:23.901Z,100610.59
2023-04-10T19:19:09.642Z,100603.88
2023-04-10T19:21:55.728Z,100600.22
2023-04-10T19:24:41.520Z,100588.50
2023-04-10T19:27:28.150Z,100594.88
2023-04-10T19:30:14.625Z,100593.75
2023-04-10T19:33:01.857Z,100588.59
2023-04-10T19:35:48.198Z,100579.91
2023-04-10T19:38:34.960Z,100575.56
2023-04-10T19:41:20.921Z,100566.91
2023-04-10T19:44:07.002Z,100563.56
2023-04-10T19:46:52.728Z,100565.94
2023-04-10T19:49:40.434Z,100561.25
2023-04-10T19:52:26.693Z,100554.91
2023-04-10T19:55:12.545Z,100557.09
2023-04-10T19:57:58.600Z,100555.63
2023-04-10T20:00:44.506Z,100552.94
2023-04-10T20:03:31.396Z,100547.97
2023-04-10T20:06:18.832Z,100554.69
2023-04-10T20:09:04.976Z,100552.34
2023-04-10T20:11:50.990Z,100559.88
2023-04-10T20:14:38.307Z,100543.19
2023-04-10T20:17:29.935Z,100538.41
2023-04-10T20:20:20.771Z,100540.06
2023-04-10T20:23:13.910Z,100549.44
2023-04-10T20:26:02.606Z,100554.13
2023-04-10T20:28:48.919Z,100544.97
2023-04-10T20:31:34.941Z,100536.13
2023-04-10T20:34:21.252Z,100528.47
2023-04-10T20:37:09.246Z,100528.47
2023-04-10T20:39:59.494Z,100517.78
2023-04-10T20:42:48.019Z,100513.41
2023-04-10T20:45:36.699Z,100505.41
2023-04-10T20:48:26.106Z,100489.03
2023-04-10T20:51:14.934Z,100489.38
2023-04-10T20:54:02.440Z,100480.50
2023-04-10T20:56:51.831Z,100479.38
2023-04-10T20:59:38.112Z,100478.75
2023-04-10T21:02:26.275Z,100481.28
2023-04-10T21:05:12.980Z,100482.50
2023-04-10T21:07:59.335Z,100485.19
2023-04-10T21:10:48.778Z,100483.31
2023-04-10T21:13:39.603Z,100492.63
2023-04-10T21:16:26.164Z,100492.81
2023-04-10T21:19:11.898Z,100482.81
2023-04-10T21:21:58.522Z,100494.94
2023-04-10T21:24:44.522Z,100495.38
2023-04-10T21:27:30.838Z,100369.69
2023-04-10T21:30:18.468Z,100419.78
2023-04-10T21:33:04.549Z,100456.03
2023-04-10T21:35:50.504Z,100508.19
2023-04-10T21:38:36.674Z,100539.19
2023-04-10T21:41:22.496Z,100557.03
2023-04-10T21:44:08.923Z,100577.16
2023-04-10T21:46:55.898Z,100596.63
2023-04-10T21:49:41.941Z,100606.78
2023-04-10T21:52:27.984Z,100630.03
2023-04-10T21:55:15.234Z,100643.59
2023-04-10T21:58:01.133Z,100648.69
2023-04-10T22:00:47.385Z,100659.63
2023-04-10T22:03:34.862Z,100661.72
2023-04-10T22:06:21.335Z,100659.28
2023-04-10T22:09:07.136Z,100668.72
2023-04-10T22:11:52.888Z,100654.84
2023-04-10T22:14:38.970Z,100659.13
2023-04-10T22:17:24.743Z,100651.38
2023-04-10T22:20:12.335Z,100652.00
2023-04-10T22:22:58.285Z,100646.97
2023-04-10T22:25:43.986Z,100639.63
2023-04-10T22:28:29.758Z,100636.13
2023-04-10T22:31:16.312Z,100625.31
2023-04-10T22:34:02.448Z,100624.47
2023-04-10T22:36:51.947Z,100615.94
2023-04-10T22:39:38.511Z,100597.00
2023-04-10T22:42:24.732Z,100584.63
2023-04-10T22:45:10.966Z,100580.31
2023-04-10T22:47:57.058Z,100576.00
2023-04-10T22:50:43.449Z,100607.16
2023-04-10T22:53:30.504Z,100624.41
2023-04-10T22:56:16.318Z,100648.28
2023-04-10T22:59:02.052Z,100666.34
2023-04-10T23:01:47.887Z,100722.28
2023-04-10T23:04:34.211Z,100770.38
2023-04-10T23:07:19.952Z,100800.03
2023-04-10T23:10:08.158Z,100826.00
2023-04-10T23:12:54.010Z,100841.41
2023-04-10T23:15:39.786Z,100857.78
2023-04-10T23:18:26.035Z,100858.59
2023-04-10T23:21:11.780Z,100857.22
2023-04-10T23:23:57.725Z,100870.66
2023-04-10T23:26:44.866Z,100896.47
2023-04-10T23:29:30.780Z,100889.94
2023-04-10T23:32:17.223Z,100869.53
2023-04-10T23:35:03.069Z,100876.94
2023-04-10T23:37:50.469Z,100882.69
2023-04-10T23:40:36.648Z,100896.50
2023-04-10T23:43:23.792Z,100904.47
2023-04-10T23:46:09.501Z,100898.19
2023-04-10T23:48:56.583Z,100877.53
2023-04-10T23:51:42.460Z,100878.81
2023-04-10T23:54:28.206Z,100903.81
2023-04-10T23:57:14.061Z,100889.56
